Terminal Aerodrome Forecast
Issued by NWS Wakefield, VA

Home | Current Version | Previous Version | Text Only | Print | Product List | Glossary On
Versions: 1 2 3 4 5 6 7 8 9 10 11 12 13 14 15 16 17 18 19 20 21 22 23 24 25 26 27 28 29 30 31 32 33 34 35 36 37 38
102
FTUS41 KAKQ 301140
TAFRIC
TAF
KRIC 301140Z 3012/0112 06006KT 4SM BR OVC005
      TEMPO 3012/3013 2SM BR OVC003
     FM301500 07005KT P6SM VCSH OVC008
     FM301800 08006KT 5SM -SHRA BR OVC025
     FM302300 VRB03KT 5SM BR BKN015
     FM010400 VRB03KT 2SM BR OVC003=

USA.gov is the U.S. government's official web portal to all federal, state and local government web resources and services.